Time,TemperatureF,DewpointF,PressureIn,WindDirection,WindDirectionDegrees,WindSpeedMPH,WindSpeedGustMPH,Humidity,HourlyPrecipIn,Conditions,Clouds,dailyrainin,SoftwareType,DateUTC
2013-12-06 00:03:00,66.0,65.1,30.06,SSW,202,4.7,-999.0,97,-99.99,,,0.00,Acu-Link.com,2013-12-06 05:03:00,
2013-12-06 00:18:00,66.0,65.1,30.06,SSW,202,4.7,-999.0,97,-99.99,,,0.00,Acu-Link.com,2013-12-06 05:18:00,
2013-12-06 00:33:00,66.0,65.4,30.06,South,180,4.2,-999.0,98,-99.99,,,0.00,Acu-Link.com,2013-12-06 05:33:00,
2013-12-06 00:49:00,66.0,65.4,30.05,SSW,202,1.7,-999.0,98,-99.99,,,0.00,Acu-Link.com,2013-12-06 05:49:00,
2013-12-06 01:04:00,66.0,65.4,30.05,South,180,3.2,-999.0,98,-99.99,,,0.00,Acu-Link.com,2013-12-06 06:04:00,
2013-12-06 01:19:00,66.0,65.4,30.04,SSW,202,4.2,-999.0,98,-99.99,,,0.00,Acu-Link.com,2013-12-06 06:19:00,
2013-12-06 01:34:00,66.0,65.7,30.04,ESE,112,1.7,-999.0,99,-99.99,,,0.00,Acu-Link.com,2013-12-06 06:34:00,
2013-12-06 01:49:00,65.8,65.5,30.04,SE,135,2.2,-999.0,99,-99.99,,,0.00,Acu-Link.com,2013-12-06 06:49:00,
2013-12-06 02:05:00,66.2,65.6,30.03,SSE,157,3.2,-999.0,98,-99.99,,,0.00,Acu-Link.com,2013-12-06 07:05:00,
2013-12-06 02:20:00,66.2,65.3,30.03,SSW,202,3.2,-999.0,97,-99.99,,,0.00,Acu-Link.com,2013-12-06 07:20:00,
2013-12-06 02:35:00,66.6,65.1,30.04,South,180,5.3,-999.0,95,-99.99,,,0.00,Acu-Link.com,2013-12-06 07:35:00,
2013-12-06 02:50:00,66.6,64.8,30.04,SSW,202,2.7,-999.0,94,-99.99,,,0.00,Acu-Link.com,2013-12-06 07:50:00,
2013-12-06 03:05:00,66.6,64.8,30.04,SSW,202,3.7,-999.0,94,-99.99,,,0.00,Acu-Link.com,2013-12-06 08:05:00,
2013-12-06 03:21:00,66.6,64.5,30.04,SE,135,2.7,-999.0,93,-99.99,,,0.00,Acu-Link.com,2013-12-06 08:21:00,
2013-12-06 03:36:00,66.4,64.3,30.03,SW,225,3.7,-999.0,93,-99.99,,,0.00,Acu-Link.com,2013-12-06 08:36:00,
2013-12-06 03:51:00,66.0,64.2,30.03,SSE,157,2.2,-999.0,94,-99.99,,,0.00,Acu-Link.com,2013-12-06 08:51:00,
2013-12-06 04:06:00,65.8,64.0,30.03,SSE,157,2.7,-999.0,94,-99.99,,,0.00,Acu-Link.com,2013-12-06 09:06:00,
2013-12-06 04:21:00,65.5,64.0,30.03,South,180,3.7,-999.0,95,-99.99,,,0.00,Acu-Link.com,2013-12-06 09:21:00,
2013-12-06 04:37:00,65.3,63.8,30.03,ESE,112,4.7,-999.0,95,-99.99,,,0.00,Acu-Link.com,2013-12-06 09:37:00,
2013-12-06 04:52:00,65.5,64.0,30.03,SSE,157,6.3,-999.0,95,-99.99,,,0.00,Acu-Link.com,2013-12-06 09:52:00,
2013-12-06 05:07:00,65.1,63.9,30.04,SSW,202,2.7,-999.0,96,-99.99,,,0.00,Acu-Link.com,2013-12-06 10:07:00,
2013-12-06 05:22:00,64.9,63.7,30.03,SSE,157,3.2,-999.0,96,-99.99,,,0.00,Acu-Link.com,2013-12-06 10:22:00,
2013-12-06 05:37:00,64.9,63.7,30.03,SSE,157,4.2,-999.0,96,-99.99,,,0.00,Acu-Link.com,2013-12-06 10:37:00,
2013-12-06 05:52:00,64.8,63.6,30.03,SSW,202,2.7,-999.0,96,-99.99,,,0.00,Acu-Link.com,2013-12-06 10:52:00,
2013-12-06 06:08:00,64.6,63.7,30.03,SSW,202,3.7,-999.0,97,-99.99,,,0.00,Acu-Link.com,2013-12-06 11:08:00,
2013-12-06 06:23:00,64.6,63.7,30.04,SW,225,3.7,-999.0,97,-99.99,,,0.00,Acu-Link.com,2013-12-06 11:23:00,
2013-12-06 06:38:00,64.6,63.7,30.05,South,180,5.8,-999.0,97,-99.99,,,0.00,Acu-Link.com,2013-12-06 11:38:00,
2013-12-06 06:53:00,64.6,63.7,30.05,SSW,202,3.7,-999.0,97,-99.99,,,0.00,Acu-Link.com,2013-12-06 11:53:00,
2013-12-06 07:08:00,64.6,63.7,30.05,South,180,3.2,-999.0,97,-99.99,,,0.00,Acu-Link.com,2013-12-06 12:08:00,
2013-12-06 07:24:00,64.6,63.7,30.05,SSE,157,4.2,-999.0,97,-99.99,,,0.00,Acu-Link.com,2013-12-06 12:24:00,
2013-12-06 07:39:00,65.1,63.9,30.06,SSE,157,4.2,-999.0,96,-99.99,,,0.00,Acu-Link.com,2013-12-06 12:39:00,
2013-12-06 07:54:00,65.7,64.2,30.07,SSE,157,2.7,-999.0,95,-99.99,,,0.00,Acu-Link.com,2013-12-06 12:54:00,
2013-12-06 08:09:00,65.7,64.2,30.08,South,180,3.7,-999.0,95,-99.99,,,0.00,Acu-Link.com,2013-12-06 13:09:00,
2013-12-06 08:25:00,66.6,64.5,30.08,SW,225,2.7,-999.0,93,-99.99,,,0.00,Acu-Link.com,2013-12-06 13:25:00,
2013-12-06 08:40:00,67.6,64.9,30.08,South,180,3.2,-999.0,91,-99.99,,,0.00,Acu-Link.com,2013-12-06 13:40:00,
2013-12-06 08:55:00,68.2,64.8,30.09,SSE,157,4.7,-999.0,89,-99.99,,,0.00,Acu-Link.com,2013-12-06 13:55:00,
2013-12-06 09:10:00,69.4,65.0,30.09,South,180,3.7,-999.0,86,-99.99,,,0.00,Acu-Link.com,2013-12-06 14:10:00,
2013-12-06 09:25:00,70.2,65.1,30.10,South,180,3.7,-999.0,84,-99.99,,,0.00,Acu-Link.com,2013-12-06 14:25:00,
2013-12-06 09:41:00,70.0,64.6,30.10,SSW,202,6.3,-999.0,83,-99.99,,,0.00,Acu-Link.com,2013-12-06 14:41:00,
2013-12-06 09:56:00,70.5,64.7,30.10,South,180,2.7,-999.0,82,-99.99,,,0.00,Acu-Link.com,2013-12-06 14:56:00,
2013-12-06 10:11:00,71.2,65.1,30.10,SSE,157,3.7,-999.0,81,-99.99,,,0.00,Acu-Link.com,2013-12-06 15:11:00,
2013-12-06 10:26:00,71.6,65.1,30.10,SW,225,3.7,-999.0,80,-99.99,,,0.00,Acu-Link.com,2013-12-06 15:26:00,
2013-12-06 10:41:00,72.3,65.4,30.09,South,180,3.7,-999.0,79,-99.99,,,0.00,Acu-Link.com,2013-12-06 15:41:00,
2013-12-06 10:57:00,72.5,65.2,30.09,SSW,202,4.7,-999.0,78,-99.99,,,0.00,Acu-Link.com,2013-12-06 15:57:00,
2013-12-06 11:12:00,74.3,65.8,30.09,SSW,202,3.2,-999.0,75,-99.99,,,0.00,Acu-Link.com,2013-12-06 16:12:00,
2013-12-06 11:27:00,76.1,65.6,30.08,SSW,202,5.8,-999.0,70,-99.99,,,0.00,Acu-Link.com,2013-12-06 16:27:00,
2013-12-06 11:42:00,76.6,65.2,30.06,SW,225,9.4,-999.0,68,-99.99,,,0.00,Acu-Link.com,2013-12-06 16:42:00,
2013-12-06 11:58:00,76.1,64.8,30.06,South,180,8.3,-999.0,68,-99.99,,,0.00,Acu-Link.com,2013-12-06 16:58:00,
2013-12-06 12:13:00,76.8,65.0,30.06,SSE,157,4.2,-999.0,67,-99.99,,,0.00,Acu-Link.com,2013-12-06 17:13:00,
2013-12-06 12:28:00,77.4,65.1,30.05,SSW,202,4.7,-999.0,66,-99.99,,,0.00,Acu-Link.com,2013-12-06 17:28:00,
2013-12-06 12:43:00,77.9,64.7,30.04,South,180,5.8,-999.0,64,-99.99,,,0.00,Acu-Link.com,2013-12-06 17:43:00,
2013-12-06 12:58:00,78.4,64.7,30.03,SW,225,6.3,-999.0,63,-99.99,,,0.00,Acu-Link.com,2013-12-06 17:58:00,
2013-12-06 13:14:00,78.4,64.7,30.02,South,180,4.2,-999.0,63,-99.99,,,0.00,Acu-Link.com,2013-12-06 18:14:00,
2013-12-06 13:29:00,78.6,65.4,30.01,SSW,202,6.8,-999.0,64,-99.99,,,0.00,Acu-Link.com,2013-12-06 18:29:00,
2013-12-06 13:44:00,79.0,64.8,30.01,South,180,5.3,-999.0,62,-99.99,,,0.00,Acu-Link.com,2013-12-06 18:44:00,
2013-12-06 13:59:00,79.5,65.8,30.00,South,180,4.2,-999.0,63,-99.99,,,0.00,Acu-Link.com,2013-12-06 18:59:00,
2013-12-06 14:14:00,78.8,65.6,29.99,SSW,202,4.2,-999.0,64,-99.99,,,0.00,Acu-Link.com,2013-12-06 19:14:00,
2013-12-06 14:30:00,78.3,65.1,29.99,SSW,202,9.9,-999.0,64,-99.99,,,0.00,Acu-Link.com,2013-12-06 19:30:00,
2013-12-06 14:45:00,78.3,65.1,29.99,SSW,202,5.8,-999.0,64,-99.99,,,0.00,Acu-Link.com,2013-12-06 19:45:00,
2013-12-06 15:00:00,78.3,65.1,29.99,SSE,157,9.9,-999.0,64,-99.99,,,0.00,Acu-Link.com,2013-12-06 20:00:00,
2013-12-06 15:16:00,78.1,64.5,29.98,SE,135,6.3,-999.0,63,-99.99,,,0.00,Acu-Link.com,2013-12-06 20:16:00,
2013-12-06 15:31:00,78.3,64.6,29.99,SSW,202,2.7,-999.0,63,-99.99,,,0.00,Acu-Link.com,2013-12-06 20:31:00,
2013-12-06 15:46:00,77.5,64.3,29.99,SSE,157,4.7,-999.0,64,-99.99,,,0.00,Acu-Link.com,2013-12-06 20:46:00,
2013-12-06 16:04:00,77.0,64.3,29.99,SSW,202,5.3,-999.0,65,-99.99,,,0.00,Acu-Link.com,2013-12-06 21:04:00,
2013-12-06 16:19:00,76.1,65.2,29.99,South,180,3.7,-999.0,69,-99.99,,,0.00,Acu-Link.com,2013-12-06 21:19:00,
2013-12-06 16:34:00,75.6,65.1,30.00,South,180,5.3,-999.0,70,-99.99,,,0.00,Acu-Link.com,2013-12-06 21:34:00,
2013-12-06 16:50:00,74.8,65.2,29.99,South,180,3.2,-999.0,72,-99.99,,,0.00,Acu-Link.com,2013-12-06 21:50:00,
2013-12-06 17:05:00,74.3,64.7,30.00,SSW,202,4.2,-999.0,72,-99.99,,,0.00,Acu-Link.com,2013-12-06 22:05:00,
2013-12-06 17:20:00,73.9,64.7,30.00,South,180,3.7,-999.0,73,-99.99,,,0.00,Acu-Link.com,2013-12-06 22:20:00,
2013-12-06 17:35:00,73.4,64.6,30.00,SW,225,4.7,-999.0,74,-99.99,,,0.00,Acu-Link.com,2013-12-06 22:35:00,
2013-12-06 17:50:00,73.2,64.4,30.00,West,270,2.7,-999.0,74,-99.99,,,0.00,Acu-Link.com,2013-12-06 22:50:00,
2013-12-06 18:05:00,72.7,63.9,30.01,South,180,2.7,-999.0,74,-99.99,,,0.00,Acu-Link.com,2013-12-06 23:05:00,
2013-12-06 18:20:00,72.1,63.7,30.01,SSE,157,2.7,-999.0,75,-99.99,,,0.00,Acu-Link.com,2013-12-06 23:20:00,
2013-12-06 18:35:00,71.6,63.6,30.01,South,180,2.7,-999.0,76,-99.99,,,0.00,Acu-Link.com,2013-12-06 23:35:00,
2013-12-06 18:51:00,71.4,63.8,30.01,South,180,2.2,-999.0,77,-99.99,,,0.00,Acu-Link.com,2013-12-06 23:51:00,
2013-12-06 19:06:00,71.2,64.0,30.00,SSE,157,2.2,-999.0,78,-99.99,,,0.00,Acu-Link.com,2013-12-07 00:06:00,
2013-12-06 19:21:00,70.9,64.1,30.01,South,180,1.7,-999.0,79,-99.99,,,0.00,Acu-Link.com,2013-12-07 00:21:00,
2013-12-06 19:36:00,70.7,64.2,30.01,South,180,2.2,-999.0,80,-99.99,,,0.00,Acu-Link.com,2013-12-07 00:36:00,
2013-12-06 19:51:00,70.7,64.2,30.01,South,180,2.7,-999.0,80,-99.99,,,0.00,Acu-Link.com,2013-12-07 00:51:00,
2013-12-06 20:06:00,70.9,64.4,30.01,South,180,3.2,-999.0,80,-99.99,,,0.00,Acu-Link.com,2013-12-07 01:06:00,
2013-12-06 20:22:00,70.5,64.4,30.01,South,180,2.7,-999.0,81,-99.99,,,0.00,Acu-Link.com,2013-12-07 01:22:00,
2013-12-06 20:37:00,70.2,64.4,30.00,SSW,202,2.7,-999.0,82,-99.99,,,0.00,Acu-Link.com,2013-12-07 01:37:00,
2013-12-06 20:52:00,69.6,64.2,30.01,SSW,202,1.7,-999.0,83,-99.99,,,0.00,Acu-Link.com,2013-12-07 01:52:00,
2013-12-06 21:07:00,69.3,64.6,30.01,ESE,112,1.7,-999.0,85,-99.99,,,0.00,Acu-Link.com,2013-12-07 02:07:00,
2013-12-06 21:22:00,69.1,64.4,30.01,South,180,2.2,-999.0,85,-99.99,,,0.00,Acu-Link.com,2013-12-07 02:22:00,
2013-12-06 21:38:00,68.9,64.5,30.00,SSE,157,2.2,-999.0,86,-99.99,,,0.00,Acu-Link.com,2013-12-07 02:38:00,
2013-12-06 21:53:00,68.7,64.7,30.00,SSW,202,2.7,-999.0,87,-99.99,,,0.00,Acu-Link.com,2013-12-07 02:53:00,
2013-12-06 22:08:00,68.7,64.7,30.00,SSW,202,1.7,-999.0,87,-99.99,,,0.00,Acu-Link.com,2013-12-07 03:08:00,
2013-12-06 22:24:00,68.5,64.8,30.00,SSW,202,2.7,-999.0,88,-99.99,,,0.00,Acu-Link.com,2013-12-07 03:24:00,
2013-12-06 22:39:00,68.7,65.0,30.01,ESE,112,2.7,-999.0,88,-99.99,,,0.00,Acu-Link.com,2013-12-07 03:39:00,
2013-12-06 22:54:00,68.5,65.1,30.01,South,180,2.2,-999.0,89,-99.99,,,0.00,Acu-Link.com,2013-12-07 03:54:00,
2013-12-06 23:09:00,68.0,65.0,30.01,SSE,157,3.2,-999.0,90,-99.99,,,0.00,Acu-Link.com,2013-12-07 04:09:00,
2013-12-06 23:24:00,68.0,65.3,30.02,South,180,2.7,-999.0,91,-99.99,,,0.00,Acu-Link.com,2013-12-07 04:24:00,
2013-12-06 23:40:00,67.8,65.1,30.02,SSE,157,2.7,-999.0,91,-99.99,,,0.00,Acu-Link.com,2013-12-07 04:40:00,
2013-12-06 23:55:00,67.6,65.2,30.02,SE,135,2.7,-999.0,92,-99.99,,,0.00,Acu-Link.com,2013-12-07 04:55:00,